sensor_id;sensor_type;location;lat;lon;timestamp;pressure;altitude;pressure_sealevel;temperature;humidity
54870;BME280;40756;-37.950;145.008;2023-07-13T00:01:23;102314.62;;;13.75;43.81
54870;BME280;40756;-37.950;145.008;2023-07-13T00:03:52;102313.28;;;13.65;43.57
54870;BME280;40756;-37.950;145.008;2023-07-13T00:06:22;102313.20;;;13.78;42.23
54870;BME280;40756;-37.950;145.008;2023-07-13T00:08:51;102312.64;;;13.85;41.98
54870;BME280;40756;-37.950;145.008;2023-07-13T00:11:21;102318.55;;;13.56;41.49
54870;BME280;40756;-37.950;145.008;2023-07-13T00:13:51;102307.27;;;13.91;41.36
54870;BME280;40756;-37.950;145.008;2023-07-13T00:16:21;102308.52;;;13.39;42.65
54870;BME280;40756;-37.950;145.008;2023-07-13T00:18:50;102295.00;;;14.09;41.06
54870;BME280;40756;-37.950;145.008;2023-07-13T00:21:20;102285.15;;;14.41;40.55
54870;BME280;40756;-37.950;145.008;2023-07-13T00:23:50;102289.86;;;14.36;40.70
54870;BME280;40756;-37.950;145.008;2023-07-13T00:26:20;102284.55;;;14.18;40.07
54870;BME280;40756;-37.950;145.008;2023-07-13T00:28:50;102276.05;;;14.02;40.55
54870;BME280;40756;-37.950;145.008;2023-07-13T00:31:19;102273.13;;;14.16;40.00
54870;BME280;40756;-37.950;145.008;2023-07-13T00:33:49;102274.71;;;14.08;40.12
54870;BME280;40756;-37.950;145.008;2023-07-13T00:36:22;102271.35;;;14.16;39.70
54870;BME280;40756;-37.950;145.008;2023-07-13T00:38:51;102264.44;;;14.72;39.43
54870;BME280;40756;-37.950;145.008;2023-07-13T00:41:20;102262.20;;;14.28;39.15
54870;BME280;40756;-37.950;145.008;2023-07-13T00:43:50;102262.59;;;14.18;39.48
54870;BME280;40756;-37.950;145.008;2023-07-13T00:46:26;102248.33;;;14.17;39.07
54870;BME280;40756;-37.950;145.008;2023-07-13T00:48:58;102258.70;;;14.25;38.42
54870;BME280;40756;-37.950;145.008;2023-07-13T00:51:32;102264.31;;;14.51;38.38
54870;BME280;40756;-37.950;145.008;2023-07-13T00:54:08;102256.13;;;15.00;38.40
54870;BME280;40756;-37.950;145.008;2023-07-13T00:56:40;102251.08;;;14.77;38.32
54870;BME280;40756;-37.950;145.008;2023-07-13T00:59:13;102256.94;;;15.40;38.13
54870;BME280;40756;-37.950;145.008;2023-07-13T01:01:44;102250.43;;;15.32;37.59
54870;BME280;40756;-37.950;145.008;2023-07-13T01:04:14;102251.54;;;15.28;37.71
54870;BME280;40756;-37.950;145.008;2023-07-13T01:06:44;102255.18;;;15.47;38.31
54870;BME280;40756;-37.950;145.008;2023-07-13T01:09:15;102251.56;;;14.43;37.97
54870;BME280;40756;-37.950;145.008;2023-07-13T01:11:45;102250.82;;;14.65;39.14
54870;BME280;40756;-37.950;145.008;2023-07-13T01:14:15;102254.78;;;15.36;38.57
54870;BME280;40756;-37.950;145.008;2023-07-13T01:16:46;102240.14;;;14.77;39.45
54870;BME280;40756;-37.950;145.008;2023-07-13T01:19:26;102244.41;;;15.15;38.05
54870;BME280;40756;-37.950;145.008;2023-07-13T01:22:00;102250.00;;;14.91;38.90
54870;BME280;40756;-37.950;145.008;2023-07-13T01:24:30;102236.99;;;14.92;39.15
54870;BME280;40756;-37.950;145.008;2023-07-13T01:26:59;102226.03;;;15.55;39.14
54870;BME280;40756;-37.950;145.008;2023-07-13T01:29:30;102217.94;;;15.21;38.73
54870;BME280;40756;-37.950;145.008;2023-07-13T01:32:01;102213.05;;;14.60;38.90
54870;BME280;40756;-37.950;145.008;2023-07-13T01:34:30;102211.32;;;14.97;38.87
54870;BME280;40756;-37.950;145.008;2023-07-13T01:37:00;102202.69;;;15.15;38.64
54870;BME280;40756;-37.950;145.008;2023-07-13T01:39:29;102205.64;;;15.42;38.83
54870;BME280;40756;-37.950;145.008;2023-07-13T01:41:59;102199.99;;;15.60;39.08
54870;BME280;40756;-37.950;145.008;2023-07-13T01:44:28;102201.60;;;14.74;39.18
54870;BME280;40756;-37.950;145.008;2023-07-13T01:46:58;102186.66;;;15.68;38.96
54870;BME280;40756;-37.950;145.008;2023-07-13T01:49:28;102182.69;;;15.59;38.17
54870;BME280;40756;-37.950;145.008;2023-07-13T01:51:57;102183.69;;;15.72;38.39
54870;BME280;40756;-37.950;145.008;2023-07-13T01:54:27;102178.48;;;15.11;38.87
54870;BME280;40756;-37.950;145.008;2023-07-13T01:56:56;102159.82;;;15.67;37.89
54870;BME280;40756;-37.950;145.008;2023-07-13T01:59:26;102159.31;;;15.83;38.29
54870;BME280;40756;-37.950;145.008;2023-07-13T02:01:56;102152.93;;;15.53;38.73
54870;BME280;40756;-37.950;145.008;2023-07-13T02:04:25;102137.88;;;16.12;38.12
54870;BME280;40756;-37.950;145.008;2023-07-13T02:06:55;102135.46;;;16.08;37.03
54870;BME280;40756;-37.950;145.008;2023-07-13T02:09:24;102134.14;;;15.78;37.65
54870;BME280;40756;-37.950;145.008;2023-07-13T02:11:54;102122.58;;;15.90;38.14
54870;BME280;40756;-37.950;145.008;2023-07-13T02:14:24;102116.00;;;16.06;37.90
54870;BME280;40756;-37.950;145.008;2023-07-13T02:16:53;102106.63;;;15.36;39.10
54870;BME280;40756;-37.950;145.008;2023-07-13T02:19:23;102105.24;;;15.86;38.52
54870;BME280;40756;-37.950;145.008;2023-07-13T02:21:52;102096.62;;;15.14;38.26
54870;BME280;40756;-37.950;145.008;2023-07-13T02:24:22;102081.41;;;16.05;37.84
54870;BME280;40756;-37.950;145.008;2023-07-13T02:26:52;102086.47;;;15.70;38.08
54870;BME280;40756;-37.950;145.008;2023-07-13T02:29:22;102088.51;;;15.10;37.97
54870;BME280;40756;-37.950;145.008;2023-07-13T02:31:52;102090.72;;;16.10;37.17
54870;BME280;40756;-37.950;145.008;2023-07-13T02:34:21;102083.36;;;15.06;37.84
54870;BME280;40756;-37.950;145.008;2023-07-13T02:36:51;102071.37;;;15.60;37.36
54870;BME280;40756;-37.950;145.008;2023-07-13T02:39:20;102066.94;;;15.74;37.86
54870;BME280;40756;-37.950;145.008;2023-07-13T02:41:50;102068.83;;;15.64;38.39
54870;BME280;40756;-37.950;145.008;2023-07-13T02:44:20;102072.88;;;15.80;37.05
54870;BME280;40756;-37.950;145.008;2023-07-13T02:46:49;102072.88;;;15.96;37.08
54870;BME280;40756;-37.950;145.008;2023-07-13T02:49:19;102061.46;;;15.81;37.59
54870;BME280;40756;-37.950;145.008;2023-07-13T02:51:49;102068.22;;;16.35;38.65
54870;BME280;40756;-37.950;145.008;2023-07-13T02:54:18;102070.02;;;16.56;36.54
54870;BME280;40756;-37.950;145.008;2023-07-13T02:56:48;102064.68;;;17.00;35.74
54870;BME280;40756;-37.950;145.008;2023-07-13T02:59:17;102069.73;;;16.52;37.03
54870;BME280;40756;-37.950;145.008;2023-07-13T03:01:47;102067.03;;;17.25;36.40
54870;BME280;40756;-37.950;145.008;2023-07-13T03:04:16;102054.95;;;16.59;35.29
54870;BME280;40756;-37.950;145.008;2023-07-13T03:06:46;102045.18;;;16.95;35.14
54870;BME280;40756;-37.950;145.008;2023-07-13T03:09:16;102037.03;;;17.64;35.80
54870;BME280;40756;-37.950;145.008;2023-07-13T03:11:46;102032.79;;;18.05;33.84
54870;BME280;40756;-37.950;145.008;2023-07-13T03:14:15;102028.31;;;17.44;35.12
54870;BME280;40756;-37.950;145.008;2023-07-13T03:16:45;102035.77;;;17.55;35.20
54870;BME280;40756;-37.950;145.008;2023-07-13T03:19:15;102030.41;;;17.46;34.92
54870;BME280;40756;-37.950;145.008;2023-07-13T03:21:45;102012.62;;;17.26;35.10
54870;BME280;40756;-37.950;145.008;2023-07-13T03:24:15;102008.89;;;17.57;34.63
54870;BME280;40756;-37.950;145.008;2023-07-13T03:26:44;102012.85;;;17.50;35.28
54870;BME280;40756;-37.950;145.008;2023-07-13T03:29:14;102007.53;;;16.92;35.69
54870;BME280;40756;-37.950;145.008;2023-07-13T03:31:44;102003.81;;;16.78;35.59
54870;BME280;40756;-37.950;145.008;2023-07-13T03:34:14;102008.15;;;16.40;34.94
54870;BME280;40756;-37.950;145.008;2023-07-13T03:36:43;102013.00;;;16.98;34.72
54870;BME280;40756;-37.950;145.008;2023-07-13T03:39:13;102007.65;;;16.54;35.26
54870;BME280;40756;-37.950;145.008;2023-07-13T03:41:42;102000.58;;;15.95;34.87
54870;BME280;40756;-37.950;145.008;2023-07-13T03:44:12;102010.50;;;16.57;35.02
54870;BME280;40756;-37.950;145.008;2023-07-13T03:46:42;102013.52;;;16.75;34.60
54870;BME280;40756;-37.950;145.008;2023-07-13T03:49:12;102007.31;;;16.07;35.35
54870;BME280;40756;-37.950;145.008;2023-07-13T03:51:41;101996.62;;;16.98;35.18
54870;BME280;40756;-37.950;145.008;2023-07-13T03:54:11;102001.68;;;16.46;35.86
54870;BME280;40756;-37.950;145.008;2023-07-13T03:56:40;101999.45;;;16.54;35.54
54870;BME280;40756;-37.950;145.008;2023-07-13T03:59:10;101990.33;;;15.79;35.90
54870;BME280;40756;-37.950;145.008;2023-07-13T04:01:41;101988.43;;;16.08;35.91
54870;BME280;40756;-37.950;145.008;2023-07-13T04:04:12;101981.68;;;16.08;35.94
54870;BME280;40756;-37.950;145.008;2023-07-13T04:06:42;101970.76;;;15.91;35.99
54870;BME280;40756;-37.950;145.008;2023-07-13T04:09:12;101971.47;;;15.70;36.50
54870;BME280;40756;-37.950;145.008;2023-07-13T04:11:41;101967.17;;;15.60;36.46
54870;BME280;40756;-37.950;145.008;2023-07-13T04:14:11;101962.82;;;15.57;36.93
54870;BME280;40756;-37.950;145.008;2023-07-13T04:16:41;101964.90;;;16.12;36.69
54870;BME280;40756;-37.950;145.008;2023-07-13T04:19:13;101974.88;;;16.37;36.37
54870;BME280;40756;-37.950;145.008;2023-07-13T04:21:43;101963.28;;;16.21;35.67
54870;BME280;40756;-37.950;145.008;2023-07-13T04:24:12;101953.24;;;15.55;35.78
54870;BME280;40756;-37.950;145.008;2023-07-13T04:26:42;101953.27;;;16.21;36.42
54870;BME280;40756;-37.950;145.008;2023-07-13T04:29:11;101940.58;;;16.38;36.55
54870;BME280;40756;-37.950;145.008;2023-07-13T04:31:42;101942.47;;;16.30;35.99
54870;BME280;40756;-37.950;145.008;2023-07-13T04:34:11;101935.26;;;15.60;36.28
54870;BME280;40756;-37.950;145.008;2023-07-13T04:36:41;101934.53;;;15.82;36.44
54870;BME280;40756;-37.950;145.008;2023-07-13T04:39:10;101927.32;;;16.19;37.54
54870;BME280;40756;-37.950;145.008;2023-07-13T04:41:40;101914.99;;;16.18;36.34
54870;BME280;40756;-37.950;145.008;2023-07-13T04:44:10;101913.70;;;16.26;38.16
54870;BME280;40756;-37.950;145.008;2023-07-13T04:46:39;101912.97;;;15.77;35.98
54870;BME280;40756;-37.950;145.008;2023-07-13T04:49:09;101917.69;;;16.14;35.92
54870;BME280;40756;-37.950;145.008;2023-07-13T04:51:38;101919.41;;;16.26;35.32
54870;BME280;40756;-37.950;145.008;2023-07-13T04:54:08;101911.25;;;15.94;35.64
54870;BME280;40756;-37.950;145.008;2023-07-13T04:56:38;101905.62;;;16.71;34.37
54870;BME280;40756;-37.950;145.008;2023-07-13T04:59:07;101909.50;;;16.74;35.31
54870;BME280;40756;-37.950;145.008;2023-07-13T05:01:37;101905.97;;;16.48;35.11
54870;BME280;40756;-37.950;145.008;2023-07-13T05:04:07;101905.45;;;16.11;35.00
54870;BME280;40756;-37.950;145.008;2023-07-13T05:06:37;101905.32;;;16.53;35.58
54870;BME280;40756;-37.950;145.008;2023-07-13T05:09:07;101903.02;;;16.46;35.15
54870;BME280;40756;-37.950;145.008;2023-07-13T05:11:37;101906.26;;;16.56;35.66
54870;BME280;40756;-37.950;145.008;2023-07-13T05:14:06;101897.09;;;16.49;35.19
54870;BME280;40756;-37.950;145.008;2023-07-13T05:16:36;101898.88;;;16.53;35.59
54870;BME280;40756;-37.950;145.008;2023-07-13T05:19:06;101899.05;;;16.00;35.68
54870;BME280;40756;-37.950;145.008;2023-07-13T05:21:36;101889.86;;;15.88;35.75
54870;BME280;40756;-37.950;145.008;2023-07-13T05:24:06;101899.30;;;16.24;35.82
54870;BME280;40756;-37.950;145.008;2023-07-13T05:26:35;101887.37;;;15.67;35.87
54870;BME280;40756;-37.950;145.008;2023-07-13T05:29:05;101887.64;;;16.29;36.10
54870;BME280;40756;-37.950;145.008;2023-07-13T05:31:34;101870.74;;;15.45;36.05
54870;BME280;40756;-37.950;145.008;2023-07-13T05:34:05;101877.40;;;15.64;36.52
54870;BME280;40756;-37.950;145.008;2023-07-13T05:36:35;101871.43;;;15.82;35.84
54870;BME280;40756;-37.950;145.008;2023-07-13T05:39:05;101878.06;;;16.39;35.10
54870;BME280;40756;-37.950;145.008;2023-07-13T05:41:35;101884.45;;;16.18;36.09
54870;BME280;40756;-37.950;145.008;2023-07-13T05:44:05;101875.80;;;15.56;36.10
54870;BME280;40756;-37.950;145.008;2023-07-13T05:46:35;101882.71;;;15.72;36.00
54870;BME280;40756;-37.950;145.008;2023-07-13T05:49:05;101883.02;;;15.86;36.19
54870;BME280;40756;-37.950;145.008;2023-07-13T05:51:34;101889.81;;;15.71;35.99
54870;BME280;40756;-37.950;145.008;2023-07-13T05:54:04;101890.40;;;16.00;35.80
54870;BME280;40756;-37.950;145.008;2023-07-13T05:56:34;101893.73;;;16.24;35.67
54870;BME280;40756;-37.950;145.008;2023-07-13T05:59:03;101886.15;;;15.26;36.34
54870;BME280;40756;-37.950;145.008;2023-07-13T06:01:33;101885.45;;;16.02;36.25
54870;BME280;40756;-37.950;145.008;2023-07-13T06:04:02;101888.56;;;16.33;36.03
54870;BME280;40756;-37.950;145.008;2023-07-13T06:06:32;101891.41;;;15.83;36.18
54870;BME280;40756;-37.950;145.008;2023-07-13T06:09:01;101903.53;;;15.50;36.38
54870;BME280;40756;-37.950;145.008;2023-07-13T06:11:31;101903.06;;;15.57;36.50
54870;BME280;40756;-37.950;145.008;2023-07-13T06:14:01;101896.46;;;15.47;36.96
54870;BME280;40756;-37.950;145.008;2023-07-13T06:16:30;101891.88;;;16.12;36.07
54870;BME280;40756;-37.950;145.008;2023-07-13T06:19:00;101892.20;;;15.75;36.41
54870;BME280;40756;-37.950;145.008;2023-07-13T06:21:29;101886.05;;;15.86;36.52
54870;BME280;40756;-37.950;145.008;2023-07-13T06:23:59;101882.32;;;15.39;37.20
54870;BME280;40756;-37.950;145.008;2023-07-13T06:26:30;101873.17;;;15.76;36.79
54870;BME280;40756;-37.950;145.008;2023-07-13T06:28:59;101869.44;;;15.94;37.07
54870;BME280;40756;-37.950;145.008;2023-07-13T06:31:29;101879.84;;;16.14;36.50
54870;BME280;40756;-37.950;145.008;2023-07-13T06:33:58;101872.20;;;16.17;37.32
54870;BME280;40756;-37.950;145.008;2023-07-13T06:36:29;101876.19;;;15.48;37.17
54870;BME280;40756;-37.950;145.008;2023-07-13T06:38:58;101867.88;;;15.42;37.18
54870;BME280;40756;-37.950;145.008;2023-07-13T06:41:28;101855.99;;;15.23;38.18
54870;BME280;40756;-37.950;145.008;2023-07-13T06:43:58;101852.28;;;15.16;38.45
54870;BME280;40756;-37.950;145.008;2023-07-13T06:46:28;101846.63;;;15.20;38.47
54870;BME280;40756;-37.950;145.008;2023-07-13T06:48:58;101846.17;;;15.35;38.28
54870;BME280;40756;-37.950;145.008;2023-07-13T06:51:27;101852.67;;;15.48;38.28
54870;BME280;40756;-37.950;145.008;2023-07-13T06:53:57;101848.87;;;14.64;39.22
54870;BME280;40756;-37.950;145.008;2023-07-13T06:56:26;101836.55;;;14.16;40.17
54870;BME280;40756;-37.950;145.008;2023-07-13T06:58:56;101831.41;;;14.40;39.59
54870;BME280;40756;-37.950;145.008;2023-07-13T07:01:26;101831.73;;;15.16;41.28
54870;BME280;40756;-37.950;145.008;2023-07-13T07:03:55;101825.24;;;15.06;39.15
54870;BME280;40756;-37.950;145.008;2023-07-13T07:06:25;101829.52;;;14.94;39.44
54870;BME280;40756;-37.950;145.008;2023-07-13T07:08:55;101836.18;;;14.74;38.93
54870;BME280;40756;-37.950;145.008;2023-07-13T07:11:25;101836.39;;;15.31;39.06
54870;BME280;40756;-37.950;145.008;2023-07-13T07:13:55;101826.25;;;15.10;38.65
54870;BME280;40756;-37.950;145.008;2023-07-13T07:16:26;101826.03;;;15.20;38.98
54870;BME280;40756;-37.950;145.008;2023-07-13T07:18:55;101816.28;;;14.08;40.13
54870;BME280;40756;-37.950;145.008;2023-07-13T07:21:25;101817.78;;;14.59;40.21
54870;BME280;40756;-37.950;145.008;2023-07-13T07:23:55;101815.23;;;14.39;40.69
54870;BME280;40756;-37.950;145.008;2023-07-13T07:26:27;101808.20;;;14.49;40.28
54870;BME280;40756;-37.950;145.008;2023-07-13T07:28:57;101810.44;;;14.11;40.59
54870;BME280;40756;-37.950;145.008;2023-07-13T07:31:26;101819.45;;;14.37;40.78
54870;BME280;40756;-37.950;145.008;2023-07-13T07:33:56;101823.49;;;14.71;40.12
54870;BME280;40756;-37.950;145.008;2023-07-13T07:36:26;101821.77;;;14.12;40.51
54870;BME280;40756;-37.950;145.008;2023-07-13T07:38:56;101826.16;;;14.74;40.58
54870;BME280;40756;-37.950;145.008;2023-07-13T07:41:25;101819.10;;;13.53;41.62
54870;BME280;40756;-37.950;145.008;2023-07-13T07:43:55;101815.24;;;13.77;41.77
54870;BME280;40756;-37.950;145.008;2023-07-13T07:46:24;101814.46;;;13.91;41.73
54870;BME280;40756;-37.950;145.008;2023-07-13T07:48:54;101815.11;;;13.84;42.29
54870;BME280;40756;-37.950;145.008;2023-07-13T07:51:24;101816.93;;;14.46;41.42
54870;BME280;40756;-37.950;145.008;2023-07-13T07:53:54;101807.51;;;14.38;41.82
54870;BME280;40756;-37.950;145.008;2023-07-13T07:56:24;101805.42;;;14.00;42.21
54870;BME280;40756;-37.950;145.008;2023-07-13T07:58:53;101810.56;;;14.16;42.42
54870;BME280;40756;-37.950;145.008;2023-07-13T08:01:23;101809.16;;;14.55;42.07
54870;BME280;40756;-37.950;145.008;2023-07-13T08:03:53;101809.97;;;13.71;43.37
54870;BME280;40756;-37.950;145.008;2023-07-13T08:06:22;101810.95;;;13.50;43.14
54870;BME280;40756;-37.950;145.008;2023-07-13T08:08:52;101814.57;;;14.22;42.94
54870;BME280;40756;-37.950;145.008;2023-07-13T08:11:22;101809.63;;;13.88;43.38
54870;BME280;40756;-37.950;145.008;2023-07-13T08:13:51;101807.96;;;14.02;43.57
54870;BME280;40756;-37.950;145.008;2023-07-13T08:16:21;101802.71;;;13.87;43.68
54870;BME280;40756;-37.950;145.008;2023-07-13T08:18:51;101806.39;;;13.86;46.37
54870;BME280;40756;-37.950;145.008;2023-07-13T08:21:20;101808.89;;;13.78;44.11
54870;BME280;40756;-37.950;145.008;2023-07-13T08:23:50;101811.49;;;13.84;43.90
54870;BME280;40756;-37.950;145.008;2023-07-13T08:26:20;101806.49;;;14.08;43.95
54870;BME280;40756;-37.950;145.008;2023-07-13T08:28:49;101805.93;;;13.95;43.36
54870;BME280;40756;-37.950;145.008;2023-07-13T08:31:19;101808.72;;;13.51;44.15
54870;BME280;40756;-37.950;145.008;2023-07-13T08:33:49;101810.08;;;13.81;44.32
54870;BME280;40756;-37.950;145.008;2023-07-13T08:36:18;101823.74;;;13.83;44.29
54870;BME280;40756;-37.950;145.008;2023-07-13T08:38:48;101820.25;;;13.73;44.43
54870;BME280;40756;-37.950;145.008;2023-07-13T08:41:19;101817.73;;;14.12;43.84
54870;BME280;40756;-37.950;145.008;2023-07-13T08:43:52;101809.41;;;14.02;43.79
54870;BME280;40756;-37.950;145.008;2023-07-13T08:46:29;101818.51;;;14.09;43.69
54870;BME280;40756;-37.950;145.008;2023-07-13T08:49:04;101808.47;;;14.44;43.45
54870;BME280;40756;-37.950;145.008;2023-07-13T08:51:40;101807.71;;;14.14;43.80
54870;BME280;40756;-37.950;145.008;2023-07-13T08:54:19;101808.98;;;13.47;44.31
54870;BME280;40756;-37.950;145.008;2023-07-13T08:56:51;101809.58;;;13.85;43.84
54870;BME280;40756;-37.950;145.008;2023-07-13T08:59:25;101801.94;;;14.19;43.71
54870;BME280;40756;-37.950;145.008;2023-07-13T09:02:09;101802.37;;;14.58;44.93
54870;BME280;40756;-37.950;145.008;2023-07-13T09:04:50;101808.16;;;14.10;42.96
54870;BME280;40756;-37.950;145.008;2023-07-13T09:07:29;101811.11;;;14.35;42.77
54870;BME280;40756;-37.950;145.008;2023-07-13T09:10:08;101812.44;;;14.45;42.56
54870;BME280;40756;-37.950;145.008;2023-07-13T09:12:57;101798.83;;;13.99;43.21
54870;BME280;40756;-37.950;145.008;2023-07-13T09:15:31;101801.36;;;13.98;43.18
54870;BME280;40756;-37.950;145.008;2023-07-13T09:18:05;101798.43;;;13.84;43.39
54870;BME280;40756;-37.950;145.008;2023-07-13T09:20:40;101798.13;;;14.27;43.18
54870;BME280;40756;-37.950;145.008;2023-07-13T09:23:16;101790.62;;;13.69;43.44
54870;BME280;40756;-37.950;145.008;2023-07-13T09:25:48;101800.63;;;14.24;43.07
54870;BME280;40756;-37.950;145.008;2023-07-13T09:28:22;101795.30;;;13.72;43.57
54870;BME280;40756;-37.950;145.008;2023-07-13T09:31:00;101787.25;;;14.00;43.52
54870;BME280;40756;-37.950;145.008;2023-07-13T09:33:31;101795.64;;;13.83;43.20
54870;BME280;40756;-37.950;145.008;2023-07-13T09:36:00;101785.05;;;14.49;42.83
54870;BME280;40756;-37.950;145.008;2023-07-13T09:38:31;101787.85;;;14.14;42.51
54870;BME280;40756;-37.950;145.008;2023-07-13T09:41:16;101785.26;;;14.22;43.11
54870;BME280;40756;-37.950;145.008;2023-07-13T09:44:11;101784.01;;;14.00;43.10
54870;BME280;40756;-37.950;145.008;2023-07-13T09:46:45;101796.85;;;13.82;43.60
54870;BME280;40756;-37.950;145.008;2023-07-13T09:49:14;101800.63;;;13.79;43.38
54870;BME280;40756;-37.950;145.008;2023-07-13T09:51:45;101806.01;;;13.64;43.55
54870;BME280;40756;-37.950;145.008;2023-07-13T09:54:23;101819.24;;;13.89;43.73
54870;BME280;40756;-37.950;145.008;2023-07-13T09:56:56;101814.24;;;13.90;43.53
54870;BME280;40756;-37.950;145.008;2023-07-13T09:59:30;101811.50;;;13.86;43.41
54870;BME280;40756;-37.950;145.008;2023-07-13T10:02:00;101816.75;;;14.13;43.56
54870;BME280;40756;-37.950;145.008;2023-07-13T10:04:32;101813.44;;;14.24;43.75
54870;BME280;40756;-37.950;145.008;2023-07-13T10:07:12;101809.59;;;13.47;44.50
54870;BME280;40756;-37.950;145.008;2023-07-13T10:09:41;101812.22;;;13.50;44.60
54870;BME280;40756;-37.950;145.008;2023-07-13T10:12:15;101799.72;;;13.92;43.30
54870;BME280;40756;-37.950;145.008;2023-07-13T10:14:46;101798.47;;;13.59;44.20
54870;BME280;40756;-37.950;145.008;2023-07-13T10:17:19;101797.00;;;13.70;44.26
54870;BME280;40756;-37.950;145.008;2023-07-13T10:19:54;101806.34;;;13.70;44.82
54870;BME280;40756;-37.950;145.008;2023-07-13T10:22:27;101810.12;;;13.86;44.91
54870;BME280;40756;-37.950;145.008;2023-07-13T10:24:58;101813.10;;;13.53;45.01
54870;BME280;40756;-37.950;145.008;2023-07-13T10:27:32;101816.77;;;13.56;45.21
54870;BME280;40756;-37.950;145.008;2023-07-13T10:30:12;101813.13;;;13.09;45.45
54870;BME280;40756;-37.950;145.008;2023-07-13T10:32:43;101830.85;;;13.24;45.63
54870;BME280;40756;-37.950;145.008;2023-07-13T10:35:15;101826.80;;;13.73;45.23
54870;BME280;40756;-37.950;145.008;2023-07-13T10:37:50;101834.66;;;13.54;45.01
54870;BME280;40756;-37.950;145.008;2023-07-13T10:40:25;101832.67;;;13.27;46.14
54870;BME280;40756;-37.950;145.008;2023-07-13T10:43:06;101819.37;;;13.45;45.99
54870;BME280;40756;-37.950;145.008;2023-07-13T10:45:39;101819.55;;;13.45;45.72
54870;BME280;40756;-37.950;145.008;2023-07-13T10:48:13;101814.68;;;13.37;46.47
54870;BME280;40756;-37.950;145.008;2023-07-13T10:50:45;101820.70;;;13.33;46.09
54870;BME280;40756;-37.950;145.008;2023-07-13T10:53:22;101832.21;;;13.16;46.86
54870;BME280;40756;-37.950;145.008;2023-07-13T10:56:00;101819.40;;;13.22;47.27
54870;BME280;40756;-37.950;145.008;2023-07-13T10:58:34;101824.13;;;13.63;46.96
54870;BME280;40756;-37.950;145.008;2023-07-13T11:01:09;101841.61;;;12.73;48.12
54870;BME280;40756;-37.950;145.008;2023-07-13T11:03:50;101855.40;;;13.27;47.82
54870;BME280;40756;-37.950;145.008;2023-07-13T11:06:33;101856.04;;;13.05;47.77
54870;BME280;40756;-37.950;145.008;2023-07-13T11:09:31;101886.26;;;12.72;48.56
54870;BME280;40756;-37.950;145.008;2023-07-13T11:12:02;101881.37;;;13.28;48.25
54870;BME280;40756;-37.950;145.008;2023-07-13T11:14:38;101877.05;;;13.30;47.52
54870;BME280;40756;-37.950;145.008;2023-07-13T11:17:35;101880.60;;;12.98;48.26
54870;BME280;40756;-37.950;145.008;2023-07-13T11:20:24;101880.87;;;13.09;48.24
54870;BME280;40756;-37.950;145.008;2023-07-13T11:23:17;101875.10;;;12.75;48.76
54870;BME280;40756;-37.950;145.008;2023-07-13T11:25:47;101869.63;;;12.83;48.23
54870;BME280;40756;-37.950;145.008;2023-07-13T11:28:22;101873.64;;;13.14;48.00
54870;BME280;40756;-37.950;145.008;2023-07-13T11:31:03;101882.73;;;12.88;48.62
54870;BME280;40756;-37.950;145.008;2023-07-13T11:33:53;101863.27;;;13.04;48.44
54870;BME280;40756;-37.950;145.008;2023-07-13T11:36:31;101871.57;;;12.96;48.25
54870;BME280;40756;-37.950;145.008;2023-07-13T11:39:15;101864.49;;;12.82;48.69
54870;BME280;40756;-37.950;145.008;2023-07-13T11:41:51;101859.04;;;13.08;48.15
54870;BME280;40756;-37.950;145.008;2023-07-13T11:44:23;101843.70;;;12.45;48.99
54870;BME280;40756;-37.950;145.008;2023-07-13T11:46:56;101827.41;;;13.22;47.55
54870;BME280;40756;-37.950;145.008;2023-07-13T11:49:29;101815.84;;;13.02;48.20
54870;BME280;40756;-37.950;145.008;2023-07-13T11:51:59;101823.32;;;12.74;48.68
54870;BME280;40756;-37.950;145.008;2023-07-13T11:54:31;101827.81;;;12.63;48.36
54870;BME280;40756;-37.950;145.008;2023-07-13T11:57:19;101823.40;;;12.76;48.52
54870;BME280;40756;-37.950;145.008;2023-07-13T11:59:52;101810.32;;;12.92;48.03
54870;BME280;40756;-37.950;145.008;2023-07-13T12:02:29;101827.97;;;12.49;48.64
54870;BME280;40756;-37.950;145.008;2023-07-13T12:05:01;101838.93;;;12.90;48.52
54870;BME280;40756;-37.950;145.008;2023-07-13T12:07:32;101827.76;;;12.51;49.21
54870;BME280;40756;-37.950;145.008;2023-07-13T12:10:06;101836.71;;;12.78;49.21
54870;BME280;40756;-37.950;145.008;2023-07-13T12:12:48;101835.86;;;13.42;47.32
54870;BME280;40756;-37.950;145.008;2023-07-13T12:15:18;101839.44;;;12.79;47.92
54870;BME280;40756;-37.950;145.008;2023-07-13T12:17:47;101839.69;;;12.56;48.63
54870;BME280;40756;-37.950;145.008;2023-07-13T12:20:23;101832.84;;;12.78;48.22
54870;BME280;40756;-37.950;145.008;2023-07-13T12:22:53;101839.96;;;12.65;48.23
54870;BME280;40756;-37.950;145.008;2023-07-13T12:25:23;101833.70;;;12.54;48.26
54870;BME280;40756;-37.950;145.008;2023-07-13T12:27:53;101840.70;;;12.49;48.52
54870;BME280;40756;-37.950;145.008;2023-07-13T12:30:27;101827.32;;;13.15;47.94
54870;BME280;40756;-37.950;145.008;2023-07-13T12:33:00;101804.47;;;12.99;47.99
54870;BME280;40756;-37.950;145.008;2023-07-13T12:35:31;101810.11;;;13.00;47.71
54870;BME280;40756;-37.950;145.008;2023-07-13T12:38:01;101798.49;;;12.54;48.47
54870;BME280;40756;-37.950;145.008;2023-07-13T12:40:34;101794.15;;;12.77;48.06
54870;BME280;40756;-37.950;145.008;2023-07-13T12:43:04;101788.42;;;12.25;48.45